Terminal Aerodrome Forecast
Issued by NWS Sterling, VA

Current Version | Previous Version | Graphics & Text | Print | Product List | Glossary On
Versions: 1 2 3 4 5 6 7 8 9 10 11 12 13 14 15 16 17 18 19 20 21 22 23 24
000
FTUS41 KLWX 020538
TAFDCA
TAF
KDCA 020538Z 0206/0306 VRB03KT P6SM BKN100
     FM021200 36006KT P6SM SCT050
     FM021600 36008KT P6SM BKN050
     FM022200 33005KT P6SM SCT050
     FM030100 VRB03KT P6SM FEW050 SCT200=

USA.gov is the U.S. government's official web portal to all federal, state and local government web resources and services.